sensor_id;sensor_type;location;lat;lon;timestamp;temperature;humidity
1307;DHT22;646;48.696;9.114;2022-12-07T00:00:40;4.30;99.90
1307;DHT22;646;48.696;9.114;2022-12-07T00:03:05;4.60;99.90
1307;DHT22;646;48.696;9.114;2022-12-07T00:05:31;4.70;99.90
1307;DHT22;646;48.696;9.114;2022-12-07T00:07:56;4.60;99.90
1307;DHT22;646;48.696;9.114;2022-12-07T00:10:22;4.10;99.90
1307;DHT22;646;48.696;9.114;2022-12-07T00:12:47;4.80;99.90
1307;DHT22;646;48.696;9.114;2022-12-07T00:15:13;4.60;99.90
1307;DHT22;646;48.696;9.114;2022-12-07T00:17:38;4.10;99.90
1307;DHT22;646;48.696;9.114;2022-12-07T00:20:04;4.60;99.90
1307;DHT22;646;48.696;9.114;2022-12-07T00:22:30;4.50;99.90
1307;DHT22;646;48.696;9.114;2022-12-07T00:24:55;4.60;99.90
1307;DHT22;646;48.696;9.114;2022-12-07T00:27:21;4.70;99.90
1307;DHT22;646;48.696;9.114;2022-12-07T00:29:46;4.60;99.90
1307;DHT22;646;48.696;9.114;2022-12-07T00:32:12;4.40;99.90
1307;DHT22;646;48.696;9.114;2022-12-07T00:34:37;3.90;99.90
1307;DHT22;646;48.696;9.114;2022-12-07T00:37:03;4.00;99.90
1307;DHT22;646;48.696;9.114;2022-12-07T00:39:28;4.10;99.90
1307;DHT22;646;48.696;9.114;2022-12-07T00:41:54;4.30;99.90
1307;DHT22;646;48.696;9.114;2022-12-07T00:44:20;3.80;99.90
1307;DHT22;646;48.696;9.114;2022-12-07T00:46:45;4.70;99.90
1307;DHT22;646;48.696;9.114;2022-12-07T00:49:11;4.40;99.90
1307;DHT22;646;48.696;9.114;2022-12-07T00:51:37;4.00;99.90
1307;DHT22;646;48.696;9.114;2022-12-07T00:54:02;4.60;99.90
1307;DHT22;646;48.696;9.114;2022-12-07T00:56:28;4.30;99.90
1307;DHT22;646;48.696;9.114;2022-12-07T00:58:56;4.10;99.90
1307;DHT22;646;48.696;9.114;2022-12-07T01:01:24;4.40;99.90
1307;DHT22;646;48.696;9.114;2022-12-07T01:03:50;3.90;99.90
1307;DHT22;646;48.696;9.114;2022-12-07T01:06:18;4.20;99.90
1307;DHT22;646;48.696;9.114;2022-12-07T01:08:44;4.30;99.90
1307;DHT22;646;48.696;9.114;2022-12-07T01:11:14;4.20;99.90
1307;DHT22;646;48.696;9.114;2022-12-07T01:13:40;4.20;99.90
1307;DHT22;646;48.696;9.114;2022-12-07T01:16:07;4.30;99.90
1307;DHT22;646;48.696;9.114;2022-12-07T01:18:35;4.30;99.90
1307;DHT22;646;48.696;9.114;2022-12-07T01:21:13;4.00;99.90
1307;DHT22;646;48.696;9.114;2022-12-07T01:23:39;4.00;99.90
1307;DHT22;646;48.696;9.114;2022-12-07T01:26:09;4.10;99.90
1307;DHT22;646;48.696;9.114;2022-12-07T01:28:34;3.90;99.90
1307;DHT22;646;48.696;9.114;2022-12-07T01:31:04;4.00;99.90
1307;DHT22;646;48.696;9.114;2022-12-07T01:33:33;4.10;99.90
1307;DHT22;646;48.696;9.114;2022-12-07T01:36:16;4.30;99.90
1307;DHT22;646;48.696;9.114;2022-12-07T01:38:42;4.30;99.90
1307;DHT22;646;48.696;9.114;2022-12-07T01:41:08;4.00;99.90
1307;DHT22;646;48.696;9.114;2022-12-07T01:43:35;4.00;99.90
1307;DHT22;646;48.696;9.114;2022-12-07T01:46:02;3.90;99.90
1307;DHT22;646;48.696;9.114;2022-12-07T01:48:36;4.00;99.90
1307;DHT22;646;48.696;9.114;2022-12-07T01:51:06;4.10;99.90
1307;DHT22;646;48.696;9.114;2022-12-07T01:53:36;4.20;99.90
1307;DHT22;646;48.696;9.114;2022-12-07T01:56:06;4.10;99.90
1307;DHT22;646;48.696;9.114;2022-12-07T01:58:33;4.00;99.90
1307;DHT22;646;48.696;9.114;2022-12-07T02:00:59;3.80;99.90
1307;DHT22;646;48.696;9.114;2022-12-07T02:03:34;4.10;99.90
1307;DHT22;646;48.696;9.114;2022-12-07T02:06:02;4.20;99.90
1307;DHT22;646;48.696;9.114;2022-12-07T02:08:28;3.90;99.90
1307;DHT22;646;48.696;9.114;2022-12-07T02:10:54;4.00;99.90
1307;DHT22;646;48.696;9.114;2022-12-07T02:13:28;3.80;99.90
1307;DHT22;646;48.696;9.114;2022-12-07T02:22:05;4.10;99.90
1307;DHT22;646;48.696;9.114;2022-12-07T02:24:45;3.80;99.90
1307;DHT22;646;48.696;9.114;2022-12-07T02:30:28;4.00;99.90
1307;DHT22;646;48.696;9.114;2022-12-07T02:33:25;3.80;99.90
1307;DHT22;646;48.696;9.114;2022-12-07T02:36:08;3.80;99.90
1307;DHT22;646;48.696;9.114;2022-12-07T02:38:52;4.10;99.90
1307;DHT22;646;48.696;9.114;2022-12-07T02:41:33;3.60;99.90
1307;DHT22;646;48.696;9.114;2022-12-07T02:44:05;3.60;99.90
1307;DHT22;646;48.696;9.114;2022-12-07T02:46:36;4.00;99.90
1307;DHT22;646;48.696;9.114;2022-12-07T02:49:03;3.20;99.90
1307;DHT22;646;48.696;9.114;2022-12-07T02:51:30;4.00;99.90
1307;DHT22;646;48.696;9.114;2022-12-07T02:53:56;3.90;99.90
1307;DHT22;646;48.696;9.114;2022-12-07T03:11:03;4.00;99.90
1307;DHT22;646;48.696;9.114;2022-12-07T03:13:16;3.70;99.90
1307;DHT22;646;48.696;9.114;2022-12-07T03:16:17;3.50;99.90
1307;DHT22;646;48.696;9.114;2022-12-07T03:18:51;3.60;99.90
1307;DHT22;646;48.696;9.114;2022-12-07T03:21:20;3.70;99.90
1307;DHT22;646;48.696;9.114;2022-12-07T03:23:50;3.60;99.90
1307;DHT22;646;48.696;9.114;2022-12-07T03:26:17;3.60;99.90
1307;DHT22;646;48.696;9.114;2022-12-07T03:28:50;3.60;99.90
1307;DHT22;646;48.696;9.114;2022-12-07T03:31:28;3.90;99.90
1307;DHT22;646;48.696;9.114;2022-12-07T03:34:11;3.80;99.90
1307;DHT22;646;48.696;9.114;2022-12-07T03:36:52;3.50;99.90
1307;DHT22;646;48.696;9.114;2022-12-07T03:42:23;3.70;99.90
1307;DHT22;646;48.696;9.114;2022-12-07T03:44:49;3.50;99.90
1307;DHT22;646;48.696;9.114;2022-12-07T03:47:31;3.40;99.90
1307;DHT22;646;48.696;9.114;2022-12-07T03:50:03;3.70;99.90
1307;DHT22;646;48.696;9.114;2022-12-07T03:52:46;3.70;99.90
1307;DHT22;646;48.696;9.114;2022-12-07T03:57:47;3.40;99.90
1307;DHT22;646;48.696;9.114;2022-12-07T04:00:13;3.40;99.90
1307;DHT22;646;48.696;9.114;2022-12-07T04:02:40;3.40;99.90
1307;DHT22;646;48.696;9.114;2022-12-07T04:05:07;3.70;99.90
1307;DHT22;646;48.696;9.114;2022-12-07T04:07:32;3.40;99.90
1307;DHT22;646;48.696;9.114;2022-12-07T04:09:58;2.90;99.90
1307;DHT22;646;48.696;9.114;2022-12-07T04:12:24;3.50;99.90
1307;DHT22;646;48.696;9.114;2022-12-07T04:14:49;3.30;99.90
1307;DHT22;646;48.696;9.114;2022-12-07T04:17:15;3.80;99.90
1307;DHT22;646;48.696;9.114;2022-12-07T04:19:40;3.40;99.90
1307;DHT22;646;48.696;9.114;2022-12-07T04:22:07;3.70;99.90
1307;DHT22;646;48.696;9.114;2022-12-07T04:24:32;3.70;99.90
1307;DHT22;646;48.696;9.114;2022-12-07T04:26:58;3.80;99.90
1307;DHT22;646;48.696;9.114;2022-12-07T04:29:24;3.60;99.90
1307;DHT22;646;48.696;9.114;2022-12-07T04:31:50;3.40;99.90
1307;DHT22;646;48.696;9.114;2022-12-07T04:34:16;3.50;99.90
1307;DHT22;646;48.696;9.114;2022-12-07T04:36:43;3.50;99.90
1307;DHT22;646;48.696;9.114;2022-12-07T04:39:20;3.00;99.90
1307;DHT22;646;48.696;9.114;2022-12-07T04:41:46;3.70;99.90
1307;DHT22;646;48.696;9.114;2022-12-07T04:44:13;2.90;99.90
1307;DHT22;646;48.696;9.114;2022-12-07T04:46:40;3.60;99.90
1307;DHT22;646;48.696;9.114;2022-12-07T04:49:06;2.90;99.90
1307;DHT22;646;48.696;9.114;2022-12-07T04:51:31;3.10;99.90
1307;DHT22;646;48.696;9.114;2022-12-07T04:53:57;3.50;99.90
1307;DHT22;646;48.696;9.114;2022-12-07T04:56:24;3.20;99.90
1307;DHT22;646;48.696;9.114;2022-12-07T04:58:50;2.70;99.90
1307;DHT22;646;48.696;9.114;2022-12-07T05:01:17;3.20;99.90
1307;DHT22;646;48.696;9.114;2022-12-07T05:03:43;3.20;99.90
1307;DHT22;646;48.696;9.114;2022-12-07T05:06:10;3.30;99.90
1307;DHT22;646;48.696;9.114;2022-12-07T05:08:35;2.60;99.90
1307;DHT22;646;48.696;9.114;2022-12-07T05:11:02;3.50;99.90
1307;DHT22;646;48.696;9.114;2022-12-07T05:13:28;2.50;99.90
1307;DHT22;646;48.696;9.114;2022-12-07T05:15:54;3.10;99.90
1307;DHT22;646;48.696;9.114;2022-12-07T05:18:20;2.80;99.90
1307;DHT22;646;48.696;9.114;2022-12-07T05:20:45;3.00;99.90
1307;DHT22;646;48.696;9.114;2022-12-07T05:23:11;3.20;99.90
1307;DHT22;646;48.696;9.114;2022-12-07T05:25:37;3.30;99.90
1307;DHT22;646;48.696;9.114;2022-12-07T05:28:03;2.40;99.90
1307;DHT22;646;48.696;9.114;2022-12-07T05:30:30;2.90;99.90
1307;DHT22;646;48.696;9.114;2022-12-07T05:32:56;2.90;99.90
1307;DHT22;646;48.696;9.114;2022-12-07T05:35:22;3.10;99.90
1307;DHT22;646;48.696;9.114;2022-12-07T05:37:48;2.20;99.90
1307;DHT22;646;48.696;9.114;2022-12-07T05:40:15;2.80;99.90
1307;DHT22;646;48.696;9.114;2022-12-07T05:42:41;2.70;99.90
1307;DHT22;646;48.696;9.114;2022-12-07T05:45:08;2.50;99.90
1307;DHT22;646;48.696;9.114;2022-12-07T05:47:34;2.30;99.90
1307;DHT22;646;48.696;9.114;2022-12-07T05:49:59;2.30;99.90
1307;DHT22;646;48.696;9.114;2022-12-07T05:52:25;1.60;99.90
1307;DHT22;646;48.696;9.114;2022-12-07T05:54:51;2.10;99.90
1307;DHT22;646;48.696;9.114;2022-12-07T05:57:16;1.90;99.90
1307;DHT22;646;48.696;9.114;2022-12-07T05:59:42;2.00;99.90
1307;DHT22;646;48.696;9.114;2022-12-07T06:02:13;1.50;99.90
1307;DHT22;646;48.696;9.114;2022-12-07T06:04:44;1.50;99.90
1307;DHT22;646;48.696;9.114;2022-12-07T06:07:12;1.50;99.90
1307;DHT22;646;48.696;9.114;2022-12-07T06:09:39;1.30;99.90
1307;DHT22;646;48.696;9.114;2022-12-07T06:12:05;1.20;99.90
1307;DHT22;646;48.696;9.114;2022-12-07T06:14:49;1.40;99.90
1307;DHT22;646;48.696;9.114;2022-12-07T06:17:15;1.40;99.90
1307;DHT22;646;48.696;9.114;2022-12-07T06:19:41;1.50;99.90
1307;DHT22;646;48.696;9.114;2022-12-07T06:22:07;1.50;99.90
1307;DHT22;646;48.696;9.114;2022-12-07T06:24:34;1.40;99.90
1307;DHT22;646;48.696;9.114;2022-12-07T06:27:00;1.50;99.90
1307;DHT22;646;48.696;9.114;2022-12-07T06:29:25;1.70;99.90
1307;DHT22;646;48.696;9.114;2022-12-07T06:31:51;1.50;99.90
1307;DHT22;646;48.696;9.114;2022-12-07T06:34:19;1.70;99.90
1307;DHT22;646;48.696;9.114;2022-12-07T06:36:45;1.80;99.90
1307;DHT22;646;48.696;9.114;2022-12-07T06:39:12;1.70;99.90
1307;DHT22;646;48.696;9.114;2022-12-07T06:41:39;2.00;99.90
1307;DHT22;646;48.696;9.114;2022-12-07T06:44:05;1.90;99.90
1307;DHT22;646;48.696;9.114;2022-12-07T06:46:31;2.00;99.90
1307;DHT22;646;48.696;9.114;2022-12-07T06:48:56;2.10;99.90
1307;DHT22;646;48.696;9.114;2022-12-07T06:51:22;2.10;99.90
1307;DHT22;646;48.696;9.114;2022-12-07T06:53:48;2.10;99.90
1307;DHT22;646;48.696;9.114;2022-12-07T06:56:14;2.10;99.90
1307;DHT22;646;48.696;9.114;2022-12-07T06:58:40;2.30;99.90
1307;DHT22;646;48.696;9.114;2022-12-07T07:01:14;1.60;99.90
1307;DHT22;646;48.696;9.114;2022-12-07T07:03:40;2.10;99.90
1307;DHT22;646;48.696;9.114;2022-12-07T07:06:06;2.20;99.90
1307;DHT22;646;48.696;9.114;2022-12-07T07:08:33;2.10;99.90
1307;DHT22;646;48.696;9.114;2022-12-07T07:10:59;2.20;99.90
1307;DHT22;646;48.696;9.114;2022-12-07T07:13:25;1.70;99.90
1307;DHT22;646;48.696;9.114;2022-12-07T07:15:50;2.20;99.90
1307;DHT22;646;48.696;9.114;2022-12-07T07:18:16;2.20;99.90
1307;DHT22;646;48.696;9.114;2022-12-07T07:20:41;2.20;99.90
1307;DHT22;646;48.696;9.114;2022-12-07T07:23:07;2.20;99.90
1307;DHT22;646;48.696;9.114;2022-12-07T07:25:32;2.30;99.90
1307;DHT22;646;48.696;9.114;2022-12-07T07:27:58;2.10;99.90
1307;DHT22;646;48.696;9.114;2022-12-07T07:30:24;2.40;99.90
1307;DHT22;646;48.696;9.114;2022-12-07T07:32:50;2.40;99.90
1307;DHT22;646;48.696;9.114;2022-12-07T07:35:15;1.90;99.90
1307;DHT22;646;48.696;9.114;2022-12-07T07:37:41;2.40;99.90
1307;DHT22;646;48.696;9.114;2022-12-07T07:40:08;2.10;99.90
1307;DHT22;646;48.696;9.114;2022-12-07T07:42:34;2.60;99.90
1307;DHT22;646;48.696;9.114;2022-12-07T07:44:59;2.60;99.90
1307;DHT22;646;48.696;9.114;2022-12-07T07:47:25;3.00;99.90
1307;DHT22;646;48.696;9.114;2022-12-07T07:49:50;3.00;99.90
1307;DHT22;646;48.696;9.114;2022-12-07T07:52:16;2.90;99.90
1307;DHT22;646;48.696;9.114;2022-12-07T07:54:41;3.10;99.90
1307;DHT22;646;48.696;9.114;2022-12-07T07:57:07;3.10;99.90
1307;DHT22;646;48.696;9.114;2022-12-07T07:59:33;3.10;99.90
1307;DHT22;646;48.696;9.114;2022-12-07T08:01:58;3.20;99.90
1307;DHT22;646;48.696;9.114;2022-12-07T08:04:24;3.20;99.90
1307;DHT22;646;48.696;9.114;2022-12-07T08:06:49;3.20;99.90
1307;DHT22;646;48.696;9.114;2022-12-07T08:09:15;3.30;99.90
1307;DHT22;646;48.696;9.114;2022-12-07T08:11:40;3.20;99.90
1307;DHT22;646;48.696;9.114;2022-12-07T08:14:06;3.50;99.90
1307;DHT22;646;48.696;9.114;2022-12-07T08:16:31;3.30;99.90
1307;DHT22;646;48.696;9.114;2022-12-07T08:18:57;3.40;99.90
1307;DHT22;646;48.696;9.114;2022-12-07T08:21:22;3.50;99.90
1307;DHT22;646;48.696;9.114;2022-12-07T08:23:48;3.60;99.90
1307;DHT22;646;48.696;9.114;2022-12-07T08:26:16;3.60;99.90
1307;DHT22;646;48.696;9.114;2022-12-07T08:28:42;3.10;99.90
1307;DHT22;646;48.696;9.114;2022-12-07T08:31:13;4.00;99.90
1307;DHT22;646;48.696;9.114;2022-12-07T08:33:39;4.20;99.90
1307;DHT22;646;48.696;9.114;2022-12-07T08:36:10;4.00;99.90
1307;DHT22;646;48.696;9.114;2022-12-07T08:38:37;4.00;99.90
1307;DHT22;646;48.696;9.114;2022-12-07T08:41:03;4.30;99.90
1307;DHT22;646;48.696;9.114;2022-12-07T08:43:30;4.60;99.90
1307;DHT22;646;48.696;9.114;2022-12-07T08:46:09;4.40;99.90
1307;DHT22;646;48.696;9.114;2022-12-07T08:48:39;4.60;99.90
1307;DHT22;646;48.696;9.114;2022-12-07T08:51:06;4.20;99.90
1307;DHT22;646;48.696;9.114;2022-12-07T08:53:32;4.80;99.90
1307;DHT22;646;48.696;9.114;2022-12-07T08:55:58;4.70;99.90
1307;DHT22;646;48.696;9.114;2022-12-07T08:58:24;4.80;99.90
1307;DHT22;646;48.696;9.114;2022-12-07T09:00:50;5.00;99.90
1307;DHT22;646;48.696;9.114;2022-12-07T09:03:15;5.10;99.90
1307;DHT22;646;48.696;9.114;2022-12-07T09:05:41;5.40;99.90
1307;DHT22;646;48.696;9.114;2022-12-07T09:08:07;5.30;99.90
1307;DHT22;646;48.696;9.114;2022-12-07T09:10:33;5.40;99.90
1307;DHT22;646;48.696;9.114;2022-12-07T09:12:58;5.40;99.90
1307;DHT22;646;48.696;9.114;2022-12-07T09:15:29;5.40;99.90
1307;DHT22;646;48.696;9.114;2022-12-07T09:17:55;5.60;99.90
1307;DHT22;646;48.696;9.114;2022-12-07T09:20:21;6.10;99.90
1307;DHT22;646;48.696;9.114;2022-12-07T09:22:46;6.00;99.90
1307;DHT22;646;48.696;9.114;2022-12-07T09:25:12;6.10;99.90
1307;DHT22;646;48.696;9.114;2022-12-07T09:27:37;6.50;99.90
1307;DHT22;646;48.696;9.114;2022-12-07T09:30:04;6.10;99.90
1307;DHT22;646;48.696;9.114;2022-12-07T09:32:30;6.50;99.90
1307;DHT22;646;48.696;9.114;2022-12-07T09:34:56;6.70;99.90
1307;DHT22;646;48.696;9.114;2022-12-07T09:37:21;6.70;99.90
1307;DHT22;646;48.696;9.114;2022-12-07T09:39:47;6.60;99.90
1307;DHT22;646;48.696;9.114;2022-12-07T09:42:34;6.50;99.90
1307;DHT22;646;48.696;9.114;2022-12-07T09:45:00;6.90;99.90
1307;DHT22;646;48.696;9.114;2022-12-07T09:47:27;6.80;99.90
1307;DHT22;646;48.696;9.114;2022-12-07T09:49:58;6.90;99.90
1307;DHT22;646;48.696;9.114;2022-12-07T09:52:28;6.90;99.90
1307;DHT22;646;48.696;9.114;2022-12-07T09:54:54;6.80;99.90
1307;DHT22;646;48.696;9.114;2022-12-07T09:57:29;7.00;99.90
1307;DHT22;646;48.696;9.114;2022-12-07T10:00:03;6.90;99.90
1307;DHT22;646;48.696;9.114;2022-12-07T10:05:01;7.30;99.90
1307;DHT22;646;48.696;9.114;2022-12-07T10:07:28;7.30;99.90
1307;DHT22;646;48.696;9.114;2022-12-07T10:09:54;7.30;99.90
1307;DHT22;646;48.696;9.114;2022-12-07T10:12:20;7.70;99.90
1307;DHT22;646;48.696;9.114;2022-12-07T10:15:03;8.00;99.90
1307;DHT22;646;48.696;9.114;2022-12-07T10:17:39;7.70;98.00
1307;DHT22;646;48.696;9.114;2022-12-07T10:22:37;7.90;96.20
1307;DHT22;646;48.696;9.114;2022-12-07T10:25:18;7.80;95.10
1307;DHT22;646;48.696;9.114;2022-12-07T10:27:57;7.40;95.60
1307;DHT22;646;48.696;9.114;2022-12-07T10:30:23;7.90;95.60
1307;DHT22;646;48.696;9.114;2022-12-07T10:32:49;8.00;95.20
1307;DHT22;646;48.696;9.114;2022-12-07T10:35:22;8.10;94.50
1307;DHT22;646;48.696;9.114;2022-12-07T10:37:49;8.30;93.80
1307;DHT22;646;48.696;9.114;2022-12-07T10:40:27;8.60;93.00
1307;DHT22;646;48.696;9.114;2022-12-07T10:48:20;8.50;91.30
1307;DHT22;646;48.696;9.114;2022-12-07T11:04:55;7.70;87.70
1307;DHT22;646;48.696;9.114;2022-12-07T11:08:03;7.80;88.40
1307;DHT22;646;48.696;9.114;2022-12-07T11:18:21;7.80;87.70
1307;DHT22;646;48.696;9.114;2022-12-07T11:32:04;7.90;87.10
1307;DHT22;646;48.696;9.114;2022-12-07T11:37:12;7.70;84.30
1307;DHT22;646;48.696;9.114;2022-12-07T11:39:56;7.70;83.50
1307;DHT22;646;48.696;9.114;2022-12-07T11:42:28;7.70;84.90
1307;DHT22;646;48.696;9.114;2022-12-07T11:45:28;7.30;83.80
1307;DHT22;646;48.696;9.114;2022-12-07T11:48:01;7.60;83.70
1307;DHT22;646;48.696;9.114;2022-12-07T11:50:39;7.70;84.40
1307;DHT22;646;48.696;9.114;2022-12-07T12:03:57;7.20;85.20
1307;DHT22;646;48.696;9.114;2022-12-07T12:06:23;7.20;85.00
1307;DHT22;646;48.696;9.114;2022-12-07T12:14:19;7.20;86.30
1307;DHT22;646;48.696;9.114;2022-12-07T12:17:02;7.30;87.30
1307;DHT22;646;48.696;9.114;2022-12-07T12:22:44;7.30;87.10
1307;DHT22;646;48.696;9.114;2022-12-07T12:25:39;6.80;86.10
1307;DHT22;646;48.696;9.114;2022-12-07T12:28:05;7.30;87.50
1307;DHT22;646;48.696;9.114;2022-12-07T12:30:41;7.30;86.00
1307;DHT22;646;48.696;9.114;2022-12-07T12:33:28;7.30;85.70
1307;DHT22;646;48.696;9.114;2022-12-07T12:36:19;7.20;86.90
1307;DHT22;646;48.696;9.114;2022-12-07T12:39:08;7.20;87.50
1307;DHT22;646;48.696;9.114;2022-12-07T12:51:59;6.70;88.30
1307;DHT22;646;48.696;9.114;2022-12-07T12:54:27;6.80;89.00
1307;DHT22;646;48.696;9.114;2022-12-07T12:57:01;6.80;90.40
1307;DHT22;646;48.696;9.114;2022-12-07T12:59:31;6.60;89.50
1307;DHT22;646;48.696;9.114;2022-12-07T13:02:22;6.80;90.50
1307;DHT22;646;48.696;9.114;2022-12-07T13:04:57;6.50;90.60
1307;DHT22;646;48.696;9.114;2022-12-07T13:13:01;6.40;90.90
1307;DHT22;646;48.696;9.114;2022-12-07T13:15:37;6.70;91.20
1307;DHT22;646;48.696;9.114;2022-12-07T13:23:12;6.40;91.60
1307;DHT22;646;48.696;9.114;2022-12-07T13:25:51;6.40;91.60
1307;DHT22;646;48.696;9.114;2022-12-07T13:28:18;6.20;92.10
1307;DHT22;646;48.696;9.114;2022-12-07T13:31:01;6.30;92.40
1307;DHT22;646;48.696;9.114;2022-12-07T13:33:29;6.00;91.80
1307;DHT22;646;48.696;9.114;2022-12-07T13:35:55;6.70;92.80
1307;DHT22;646;48.696;9.114;2022-12-07T13:38:35;6.20;92.20
1307;DHT22;646;48.696;9.114;2022-12-07T13:43:53;6.00;92.60
1307;DHT22;646;48.696;9.114;2022-12-07T13:46:25;7.00;92.90
1307;DHT22;646;48.696;9.114;2022-12-07T13:48:52;6.60;92.60
1307;DHT22;646;48.696;9.114;2022-12-07T13:51:22;6.80;92.90
1307;DHT22;646;48.696;9.114;2022-12-07T13:53:53;7.00;93.10
1307;DHT22;646;48.696;9.114;2022-12-07T13:56:22;6.90;92.50
1307;DHT22;646;48.696;9.114;2022-12-07T13:58:48;6.70;92.40
1307;DHT22;646;48.696;9.114;2022-12-07T14:01:13;6.90;92.30
1307;DHT22;646;48.696;9.114;2022-12-07T14:03:39;6.80;92.50
1307;DHT22;646;48.696;9.114;2022-12-07T14:06:19;6.70;92.10
1307;DHT22;646;48.696;9.114;2022-12-07T14:09:26;7.00;92.30
1307;DHT22;646;48.696;9.114;2022-12-07T14:11:54;6.70;92.30
1307;DHT22;646;48.696;9.114;2022-12-07T14:14:24;7.00;92.40
1307;DHT22;646;48.696;9.114;2022-12-07T14:17:16;6.80;92.40
1307;DHT22;646;48.696;9.114;2022-12-07T14:22:33;6.40;92.10
1307;DHT22;646;48.696;9.114;2022-12-07T14:25:19;6.70;92.50
1307;DHT22;646;48.696;9.114;2022-12-07T14:27:57;5.90;92.50
1307;DHT22;646;48.696;9.114;2022-12-07T14:30:26;6.60;92.90
1307;DHT22;646;48.696;9.114;2022-12-07T14:33:03;6.60;93.00
1307;DHT22;646;48.696;9.114;2022-12-07T14:35:30;6.30;92.60
1307;DHT22;646;48.696;9.114;2022-12-07T14:37:56;5.80;92.30
1307;DHT22;646;48.696;9.114;2022-12-07T14:40:24;6.50;92.00
1307;DHT22;646;48.696;9.114;2022-12-07T14:43:05;6.30;91.80
1307;DHT22;646;48.696;9.114;2022-12-07T14:45:32;6.10;92.20
1307;DHT22;646;48.696;9.114;2022-12-07T14:47:57;6.00;91.90
1307;DHT22;646;48.696;9.114;2022-12-07T14:50:23;6.30;92.10
1307;DHT22;646;48.696;9.114;2022-12-07T14:52:58;6.10;92.10
1307;DHT22;646;48.696;9.114;2022-12-07T14:55:29;5.90;92.60
1307;DHT22;646;48.696;9.114;2022-12-07T14:57:56;6.20;92.80
1307;DHT22;646;48.696;9.114;2022-12-07T15:00:24;5.70;92.10
1307;DHT22;646;48.696;9.114;2022-12-07T15:02:50;5.80;92.10
1307;DHT22;646;48.696;9.114;2022-12-07T15:05:16;5.80;92.70
1307;DHT22;646;48.696;9.114;2022-12-07T15:07:43;5.70;92.60
1307;DHT22;646;48.696;9.114;2022-12-07T15:10:21;5.10;92.10
1307;DHT22;646;48.696;9.114;2022-12-07T15:12:47;5.60;93.00
1307;DHT22;646;48.696;9.114;2022-12-07T15:15:13;5.60;92.60
1307;DHT22;646;48.696;9.114;2022-12-07T15:17:39;5.70;93.20
1307;DHT22;646;48.696;9.114;2022-12-07T15:20:07;5.50;92.70
1307;DHT22;646;48.696;9.114;2022-12-07T15:22:42;5.40;93.00
1307;DHT22;646;48.696;9.114;2022-12-07T15:25:28;5.30;93.20
1307;DHT22;646;48.696;9.114;2022-12-07T15:27:54;5.40;93.30
1307;DHT22;646;48.696;9.114;2022-12-07T15:30:19;5.40;93.40
1307;DHT22;646;48.696;9.114;2022-12-07T15:32:49;5.20;93.50
1307;DHT22;646;48.696;9.114;2022-12-07T15:35:14;5.20;94.10
1307;DHT22;646;48.696;9.114;2022-12-07T15:37:40;5.20;93.80
1307;DHT22;646;48.696;9.114;2022-12-07T15:40:06;5.40;93.90
1307;DHT22;646;48.696;9.114;2022-12-07T15:42:32;5.50;94.30
1307;DHT22;646;48.696;9.114;2022-12-07T15:45:07;4.80;94.10
1307;DHT22;646;48.696;9.114;2022-12-07T15:47:39;5.20;94.90
1307;DHT22;646;48.696;9.114;2022-12-07T15:50:08;4.70;95.10
1307;DHT22;646;48.696;9.114;2022-12-07T15:52:34;5.10;95.60
1307;DHT22;646;48.696;9.114;2022-12-07T15:54:59;4.60;95.10
1307;DHT22;646;48.696;9.114;2022-12-07T15:57:26;5.00;96.00
1307;DHT22;646;48.696;9.114;2022-12-07T15:59:51;5.20;97.10
1307;DHT22;646;48.696;9.114;2022-12-07T16:02:17;5.00;97.00
1307;DHT22;646;48.696;9.114;2022-12-07T16:04:43;4.90;97.60
1307;DHT22;646;48.696;9.114;2022-12-07T16:07:09;4.90;97.70
1307;DHT22;646;48.696;9.114;2022-12-07T16:09:37;4.90;98.40
1307;DHT22;646;48.696;9.114;2022-12-07T16:12:03;5.00;98.80
1307;DHT22;646;48.696;9.114;2022-12-07T16:14:29;5.20;99.00
1307;DHT22;646;48.696;9.114;2022-12-07T16:16:54;5.00;99.20
1307;DHT22;646;48.696;9.114;2022-12-07T16:19:20;4.80;99.20
1307;DHT22;646;48.696;9.114;2022-12-07T16:21:46;5.00;99.70
1307;DHT22;646;48.696;9.114;2022-12-07T16:24:12;5.10;99.60
1307;DHT22;646;48.696;9.114;2022-12-07T16:26:40;5.00;99.70
1307;DHT22;646;48.696;9.114;2022-12-07T16:29:05;4.70;99.80
1307;DHT22;646;48.696;9.114;2022-12-07T16:31:31;4.90;99.90
1307;DHT22;646;48.696;9.114;2022-12-07T16:33:58;4.60;99.90
1307;DHT22;646;48.696;9.114;2022-12-07T16:36:24;4.90;99.90
1307;DHT22;646;48.696;9.114;2022-12-07T16:38:52;4.60;99.90
1307;DHT22;646;48.696;9.114;2022-12-07T16:41:17;4.60;99.90
1307;DHT22;646;48.696;9.114;2022-12-07T16:43:43;4.40;99.90
1307;DHT22;646;48.696;9.114;2022-12-07T16:46:09;4.40;99.90
1307;DHT22;646;48.696;9.114;2022-12-07T16:48:36;4.40;99.90
1307;DHT22;646;48.696;9.114;2022-12-07T16:51:05;4.40;99.90
1307;DHT22;646;48.696;9.114;2022-12-07T16:53:30;4.30;99.90
1307;DHT22;646;48.696;9.114;2022-12-07T16:55:56;4.30;99.90
1307;DHT22;646;48.696;9.114;2022-12-07T16:58:21;4.10;99.90
1307;DHT22;646;48.696;9.114;2022-12-07T17:00:47;4.30;99.90
1307;DHT22;646;48.696;9.114;2022-12-07T17:03:14;4.40;99.90
1307;DHT22;646;48.696;9.114;2022-12-07T17:05:41;4.20;99.90
1307;DHT22;646;48.696;9.114;2022-12-07T17:08:11;4.20;99.90
1307;DHT22;646;48.696;9.114;2022-12-07T17:10:42;4.10;99.90
1307;DHT22;646;48.696;9.114;2022-12-07T17:13:09;4.10;99.90
1307;DHT22;646;48.696;9.114;2022-12-07T17:16:02;3.80;99.90
1307;DHT22;646;48.696;9.114;2022-12-07T17:18:33;4.00;99.90
1307;DHT22;646;48.696;9.114;2022-12-07T17:21:07;4.10;99.90
1307;DHT22;646;48.696;9.114;2022-12-07T17:23:34;4.00;99.90
1307;DHT22;646;48.696;9.114;2022-12-07T17:26:15;3.40;99.90
1307;DHT22;646;48.696;9.114;2022-12-07T17:28:41;3.70;99.90
1307;DHT22;646;48.696;9.114;2022-12-07T17:31:08;3.80;99.90
1307;DHT22;646;48.696;9.114;2022-12-07T17:33:35;3.70;99.90
1307;DHT22;646;48.696;9.114;2022-12-07T17:36:00;3.60;99.90
1307;DHT22;646;48.696;9.114;2022-12-07T17:38:28;3.50;99.90
1307;DHT22;646;48.696;9.114;2022-12-07T17:40:53;3.40;99.90
1307;DHT22;646;48.696;9.114;2022-12-07T17:43:19;2.90;99.90
1307;DHT22;646;48.696;9.114;2022-12-07T17:45:44;3.70;99.90
1307;DHT22;646;48.696;9.114;2022-12-07T17:48:11;3.60;99.90
1307;DHT22;646;48.696;9.114;2022-12-07T17:50:38;3.60;99.90
1307;DHT22;646;48.696;9.114;2022-12-07T17:53:22;3.30;99.90
1307;DHT22;646;48.696;9.114;2022-12-07T17:55:52;3.40;99.90
1307;DHT22;646;48.696;9.114;2022-12-07T17:58:18;3.10;99.90
1307;DHT22;646;48.696;9.114;2022-12-07T18:00:44;3.50;99.90
1307;DHT22;646;48.696;9.114;2022-12-07T18:03:09;3.40;99.90
1307;DHT22;646;48.696;9.114;2022-12-07T18:05:36;2.80;99.90
1307;DHT22;646;48.696;9.114;2022-12-07T18:08:03;3.70;99.90
1307;DHT22;646;48.696;9.114;2022-12-07T18:10:28;3.50;99.90
1307;DHT22;646;48.696;9.114;2022-12-07T18:12:54;3.40;99.90
1307;DHT22;646;48.696;9.114;2022-12-07T18:15:39;3.50;99.90
1307;DHT22;646;48.696;9.114;2022-12-07T18:18:05;3.50;99.90
1307;DHT22;646;48.696;9.114;2022-12-07T18:20:31;3.50;99.90
1307;DHT22;646;48.696;9.114;2022-12-07T18:22:56;3.70;99.90
1307;DHT22;646;48.696;9.114;2022-12-07T18:25:22;3.50;99.90
1307;DHT22;646;48.696;9.114;2022-12-07T18:27:47;3.50;99.90
1307;DHT22;646;48.696;9.114;2022-12-07T18:30:13;3.50;99.90
1307;DHT22;646;48.696;9.114;2022-12-07T18:32:39;3.40;99.90
1307;DHT22;646;48.696;9.114;2022-12-07T18:35:05;3.40;99.90
1307;DHT22;646;48.696;9.114;2022-12-07T18:37:30;3.50;99.90
1307;DHT22;646;48.696;9.114;2022-12-07T18:39:57;3.60;99.90
1307;DHT22;646;48.696;9.114;2022-12-07T18:42:23;3.30;99.90
1307;DHT22;646;48.696;9.114;2022-12-07T18:44:48;3.30;99.90
1307;DHT22;646;48.696;9.114;2022-12-07T18:47:14;3.40;99.90